createdAt,value
2022-10-04T00:00:09.986Z,43.20
2022-10-04T00:02:45.175Z,43.38
2022-10-04T00:05:19.075Z,43.27
2022-10-04T00:07:52.867Z,43.48
2022-10-04T00:10:25.785Z,43.35
2022-10-04T00:13:00.109Z,43.32
2022-10-04T00:15:32.172Z,43.28
2022-10-04T00:18:22.058Z,43.25
2022-10-04T00:21:06.697Z,43.73
2022-10-04T00:23:48.234Z,43.39
2022-10-04T00:27:20.401Z,43.68
2022-10-04T00:30:13.570Z,43.88
2022-10-04T00:32:49.219Z,43.95
2022-10-04T00:35:52.089Z,43.92
2022-10-04T00:38:28.618Z,44.09
2022-10-04T00:41:04.649Z,44.36
2022-10-04T00:43:40.358Z,44.08
2022-10-04T00:46:13.402Z,44.18
2022-10-04T00:48:48.578Z,44.33
2022-10-04T00:51:27.934Z,44.21
2022-10-04T00:54:08.610Z,44.52
2022-10-04T00:56:44.319Z,44.50
2022-10-04T00:59:33.262Z,44.70
2022-10-04T01:02:07.196Z,44.28
2022-10-04T01:04:44.877Z,44.50
2022-10-04T01:07:22.284Z,44.21
2022-10-04T01:09:56.377Z,44.16
2022-10-04T01:12:39.747Z,44.16
2022-10-04T01:15:13.708Z,44.28
2022-10-04T01:17:42.258Z,43.85
2022-10-04T01:20:35.989Z,43.97
2022-10-04T01:23:06.532Z,43.83
2022-10-04T01:25:50.423Z,43.73
2022-10-04T01:28:19.061Z,43.67
2022-10-04T01:30:47.961Z,43.50
2022-10-04T01:33:16.370Z,43.58
2022-10-04T01:35:44.902Z,43.41
2022-10-04T01:38:14.927Z,43.40
2022-10-04T01:40:49.682Z,43.31
2022-10-04T01:43:24.904Z,43.42
2022-10-04T01:45:59.814Z,43.25
2022-10-04T01:48:37.369Z,43.14
2022-10-04T01:51:14.333Z,43.35
2022-10-04T01:53:54.653Z,43.34
2022-10-04T01:56:28.765Z,43.45
2022-10-04T01:59:01.073Z,43.48
2022-10-04T02:01:40.511Z,43.37
2022-10-04T02:04:21.336Z,43.29
2022-10-04T02:06:57.332Z,42.96
2022-10-04T02:09:30.630Z,43.12
2022-10-04T02:11:59.733Z,43.01
2022-10-04T02:14:33.242Z,43.04
2022-10-04T02:17:04.890Z,42.81
2022-10-04T02:19:37.721Z,42.86
2022-10-04T02:22:08.416Z,43.00
2022-10-04T02:24:43.246Z,42.90
2022-10-04T02:27:11.940Z,42.93
2022-10-04T02:29:40.442Z,42.76
2022-10-04T02:32:27.862Z,42.65
2022-10-04T02:34:58.238Z,42.78
2022-10-04T02:37:30.139Z,42.88
2022-10-04T02:40:09.452Z,42.74
2022-10-04T02:42:45.220Z,42.80
2022-10-04T02:45:23.875Z,42.63
2022-10-04T02:47:59.584Z,42.82
2022-10-04T02:50:32.797Z,42.85
2022-10-04T02:53:13.279Z,42.74
2022-10-04T02:55:44.087Z,42.97
2022-10-04T02:58:18.424Z,42.76
2022-10-04T03:00:50.690Z,42.95
2022-10-04T03:03:26.378Z,42.90
2022-10-04T03:06:03.264Z,42.89
2022-10-04T03:08:35.733Z,42.93
2022-10-04T03:11:06.933Z,42.89
2022-10-04T03:13:37.283Z,42.86
2022-10-04T03:16:07.199Z,42.94
2022-10-04T03:18:38.015Z,42.97
2022-10-04T03:21:12.446Z,42.86
2022-10-04T03:23:42.008Z,42.91
2022-10-04T03:26:28.357Z,43.03
2022-10-04T03:28:58.178Z,42.82
2022-10-04T03:31:28.215Z,43.02
2022-10-04T03:33:58.750Z,42.91
2022-10-04T03:36:28.735Z,42.99
2022-10-04T03:38:59.654Z,43.12
2022-10-04T03:41:29.443Z,43.17
2022-10-04T03:44:02.674Z,42.96
2022-10-04T03:46:33.706Z,43.21
2022-10-04T03:49:02.759Z,43.09
2022-10-04T03:51:31.297Z,43.25
2022-10-04T03:54:02.611Z,43.14
2022-10-04T03:56:34.908Z,43.09
2022-10-04T03:59:05.425Z,43.28
2022-10-04T04:01:41.593Z,43.16
2022-10-04T04:04:20.583Z,43.26
2022-10-04T04:07:01.180Z,43.30
2022-10-04T04:09:44.977Z,43.42
2022-10-04T04:12:20.821Z,43.39
2022-10-04T04:14:53.207Z,43.35
2022-10-04T04:17:41.800Z,43.21
2022-10-04T04:20:26.229Z,43.61
2022-10-04T04:23:02.239Z,43.40
2022-10-04T04:25:33.947Z,43.31
2022-10-04T04:28:14.646Z,43.25
2022-10-04T04:30:48.057Z,43.40
2022-10-04T04:33:27.532Z,43.37
2022-10-04T04:36:04.164Z,43.23
2022-10-04T04:38:32.757Z,43.35
2022-10-04T04:41:11.103Z,43.19
2022-10-04T04:43:45.945Z,43.25
2022-10-04T04:46:27.143Z,43.27
2022-10-04T04:49:03.015Z,43.31
2022-10-04T04:51:34.176Z,43.59
2022-10-04T04:54:07.319Z,43.27
2022-10-04T04:56:37.029Z,43.32
2022-10-04T04:59:08.928Z,43.39
2022-10-04T05:01:45.067Z,43.44
2022-10-04T05:04:23.354Z,43.18
2022-10-04T05:07:04.431Z,43.21
2022-10-04T05:09:35.074Z,43.29
2022-10-04T05:12:11.475Z,43.23
2022-10-04T05:14:50.512Z,43.20
2022-10-04T05:17:22.126Z,43.49
2022-10-04T05:19:52.473Z,43.41
2022-10-04T05:22:25.183Z,43.38
2022-10-04T05:24:58.542Z,43.49
2022-10-04T05:27:32.869Z,43.59
2022-10-04T05:30:09.857Z,43.48
2022-10-04T05:32:51.911Z,43.42
2022-10-04T05:35:22.993Z,43.26
2022-10-04T05:38:07.222Z,43.42
2022-10-04T05:40:50.295Z,43.53
2022-10-04T05:43:26.796Z,43.32
2022-10-04T05:46:22.379Z,43.38
2022-10-04T05:48:56.391Z,43.26
2022-10-04T05:51:27.703Z,43.43
2022-10-04T05:53:58.971Z,43.34
2022-10-04T05:57:05.348Z,43.30
2022-10-04T05:59:59.440Z,43.30
2022-10-04T06:02:48.854Z,43.19
2022-10-04T06:05:29.216Z,43.32
2022-10-04T06:08:08.339Z,43.20
2022-10-04T06:11:06.762Z,43.23
2022-10-04T06:14:16.151Z,43.30
2022-10-04T06:17:03.715Z,43.29
2022-10-04T06:20:11.570Z,43.23
2022-10-04T06:22:46.826Z,43.04
2022-10-04T06:25:20.100Z,43.33
2022-10-04T06:27:56.114Z,43.20
2022-10-04T06:30:24.760Z,43.19
2022-10-04T06:33:23.613Z,43.37
2022-10-04T06:36:29.664Z,43.20
2022-10-04T06:39:33.893Z,43.29
2022-10-04T06:42:33.926Z,43.33
2022-10-04T06:45:23.483Z,43.45
2022-10-04T06:48:18.309Z,43.13
2022-10-04T06:50:52.550Z,43.15
2022-10-04T06:53:39.545Z,43.00
2022-10-04T06:56:46.185Z,43.13
2022-10-04T06:59:42.010Z,43.09
2022-10-04T07:02:17.724Z,43.00
2022-10-04T07:05:08.859Z,43.00
2022-10-04T07:07:42.113Z,42.90
2022-10-04T07:10:32.382Z,42.75
2022-10-04T07:13:33.865Z,42.67
2022-10-04T07:16:09.480Z,42.58
2022-10-04T07:18:45.604Z,42.48
2022-10-04T07:21:17.816Z,42.24
2022-10-04T07:23:50.411Z,42.32
2022-10-04T07:26:30.147Z,42.13
2022-10-04T07:29:22.473Z,42.12
2022-10-04T07:32:04.076Z,42.10
2022-10-04T07:34:37.903Z,41.87
2022-10-04T07:37:12.839Z,41.86
2022-10-04T07:39:52.359Z,41.81
2022-10-04T07:42:29.405Z,41.69
2022-10-04T07:45:11.855Z,41.64
2022-10-04T07:47:41.522Z,41.38
2022-10-04T07:50:34.465Z,41.44
2022-10-04T07:53:09.447Z,40.79
2022-10-04T07:55:56.605Z,40.70
2022-10-04T07:58:52.900Z,40.43
2022-10-04T08:01:35.730Z,40.32
2022-10-04T08:04:20.284Z,40.17
2022-10-04T08:07:00.004Z,40.46
2022-10-04T08:09:48.691Z,40.42
2022-10-04T08:12:25.570Z,39.49
2022-10-04T08:15:34.463Z,39.85
2022-10-04T08:18:18.584Z,39.36
2022-10-04T08:20:56.040Z,39.30
2022-10-04T08:23:51.115Z,38.86
2022-10-04T08:26:44.456Z,38.71
2022-10-04T08:29:54.598Z,38.93
2022-10-04T08:32:40.209Z,38.71
2022-10-04T08:35:40.016Z,38.64
2022-10-04T08:38:43.123Z,38.57
2022-10-04T08:42:25.764Z,39.01
2022-10-04T08:45:37.835Z,38.79
2022-10-04T08:48:47.276Z,38.55
2022-10-04T08:51:48.118Z,38.40
2022-10-04T08:55:44.043Z,38.61
2022-10-04T08:58:27.548Z,38.36
2022-10-04T09:01:29.359Z,38.37
2022-10-04T09:04:43.123Z,37.99
2022-10-04T09:08:05.358Z,38.29
2022-10-04T09:10:51.870Z,37.94
2022-10-04T09:13:38.269Z,38.02
2022-10-04T09:16:18.431Z,38.20
2022-10-04T09:19:21.507Z,38.46
2022-10-04T09:22:26.730Z,38.10
2022-10-04T09:25:29.023Z,37.85
2022-10-04T09:28:18.318Z,37.85
2022-10-04T09:31:25.972Z,37.77
2022-10-04T09:34:23.393Z,37.08
2022-10-04T09:37:28.292Z,37.02
2022-10-04T09:40:46.542Z,37.40
2022-10-04T09:44:03.735Z,36.81
2022-10-04T09:47:03.167Z,36.84
2022-10-04T09:50:13.941Z,37.05
2022-10-04T09:52:55.695Z,36.97
2022-10-04T09:55:47.538Z,37.45
2022-10-04T09:59:01.075Z,36.28
2022-10-04T10:01:40.967Z,35.79
2022-10-04T10:04:38.868Z,35.82
2022-10-04T10:07:37.160Z,35.70
2022-10-04T10:10:37.167Z,34.64
2022-10-04T10:13:44.010Z,35.33
2022-10-04T10:16:31.126Z,35.76
2022-10-04T10:19:37.507Z,35.65
2022-10-04T10:22:33.910Z,35.52
2022-10-04T10:25:23.054Z,35.27
2022-10-04T10:28:24.157Z,34.17
2022-10-04T10:31:18.520Z,34.09
2022-10-04T10:34:43.449Z,33.64
2022-10-04T10:37:16.058Z,33.56
2022-10-04T10:40:33.219Z,33.03
2022-10-04T10:43:37.640Z,33.49
2022-10-04T10:46:40.652Z,33.58
2022-10-04T10:49:40.638Z,33.43
2022-10-04T10:53:14.324Z,33.16
2022-10-04T10:56:27.990Z,33.08
2022-10-04T10:59:50.016Z,32.97
2022-10-04T11:03:34.497Z,32.79
2022-10-04T11:06:48.563Z,32.38
2022-10-04T11:09:44.069Z,31.40
2022-10-04T11:13:12.085Z,31.51
2022-10-04T11:16:08.382Z,31.67
2022-10-04T11:19:31.427Z,31.38
2022-10-04T11:23:00.177Z,30.64
2022-10-04T11:26:33.953Z,31.08
2022-10-04T11:29:20.438Z,30.38
2022-10-04T11:33:05.189Z,29.93
2022-10-04T11:35:58.547Z,28.26
2022-10-04T11:38:58.308Z,27.77
2022-10-04T11:41:43.280Z,27.98
2022-10-04T11:44:59.848Z,28.04
2022-10-04T11:47:43.242Z,28.34
2022-10-04T11:50:34.383Z,28.37
2022-10-04T11:53:40.406Z,28.51
2022-10-04T11:56:40.481Z,28.85
2022-10-04T11:59:39.415Z,29.57
2022-10-04T12:03:13.897Z,29.75
2022-10-04T12:06:17.220Z,29.04
2022-10-04T12:09:04.913Z,28.01
2022-10-04T12:12:32.673Z,27.67
2022-10-04T12:15:49.701Z,28.21
2022-10-04T12:18:47.765Z,27.93
2022-10-04T12:21:34.920Z,27.16
2022-10-04T12:24:51.893Z,27.37
2022-10-04T12:27:55.201Z,26.79
2022-10-04T12:30:32.106Z,25.44
2022-10-04T12:33:12.065Z,22.99
2022-10-04T12:36:06.886Z,23.13
2022-10-04T12:39:05.310Z,21.78
2022-10-04T12:41:49.950Z,22.54
2022-10-04T12:44:41.352Z,22.92
2022-10-04T12:47:53.962Z,22.91
2022-10-04T12:50:36.652Z,23.26
2022-10-04T12:53:19.801Z,23.59
2022-10-04T12:56:21.963Z,24.16
2022-10-04T12:59:08.802Z,23.82
2022-10-04T13:01:49.426Z,22.76
2022-10-04T13:04:30.619Z,22.68
2022-10-04T13:07:28.707Z,22.25
2022-10-04T13:10:36.320Z,21.77
2022-10-04T13:13:56.673Z,22.45
2022-10-04T13:19:39.109Z,23.49
2022-10-04T13:22:55.255Z,23.43
2022-10-04T13:25:59.990Z,24.18
2022-10-04T13:28:44.965Z,24.29
2022-10-04T13:31:24.607Z,25.13
2022-10-04T13:34:01.289Z,25.04
2022-10-04T13:36:46.331Z,24.97
2022-10-04T13:39:45.614Z,25.26
2022-10-04T13:42:35.087Z,25.82
2022-10-04T13:45:38.010Z,26.15
2022-10-04T13:48:29.584Z,26.84
2022-10-04T13:51:26.903Z,26.99
2022-10-04T13:54:28.160Z,27.03
2022-10-04T13:57:19.364Z,26.34
2022-10-04T13:59:55.323Z,26.30
2022-10-04T14:03:05.772Z,26.52
2022-10-04T14:06:10.461Z,26.69
2022-10-04T14:09:19.788Z,27.14
2022-10-04T14:12:26.878Z,27.22
2022-10-04T14:15:44.739Z,27.41
2022-10-04T14:19:02.319Z,27.44
2022-10-04T14:22:26.143Z,27.52
2022-10-04T14:25:49.711Z,27.51
2022-10-04T14:28:59.784Z,27.88
2022-10-04T14:32:09.715Z,27.73
2022-10-04T14:35:02.328Z,27.98
2022-10-04T14:38:26.728Z,28.14
2022-10-04T14:41:45.670Z,28.56
2022-10-04T14:44:47.538Z,28.63
2022-10-04T14:47:43.080Z,28.85
2022-10-04T14:50:27.914Z,28.81
2022-10-04T14:53:17.843Z,29.11
2022-10-04T14:56:29.982Z,28.94
2022-10-04T14:59:18.095Z,29.10
2022-10-04T15:02:24.112Z,29.06
2022-10-04T15:05:27.626Z,29.13
2022-10-04T15:08:46.023Z,29.29
2022-10-04T15:11:18.868Z,29.60
2022-10-04T15:13:55.780Z,29.77
2022-10-04T15:16:43.984Z,29.63
2022-10-04T15:19:28.196Z,29.80
2022-10-04T15:22:07.848Z,30.20
2022-10-04T15:24:50.196Z,30.30
2022-10-04T15:27:50.441Z,30.21
2022-10-04T15:30:45.769Z,30.42
2022-10-04T15:33:34.684Z,30.46
2022-10-04T15:36:43.585Z,30.33
2022-10-04T15:39:42.626Z,30.66
2022-10-04T15:42:22.706Z,30.89
2022-10-04T15:45:41.554Z,31.14
2022-10-04T15:48:39.903Z,31.21
2022-10-04T15:51:18.333Z,31.18
2022-10-04T15:54:12.619Z,31.11
2022-10-04T15:56:57.108Z,31.26
2022-10-04T15:59:49.706Z,31.55
2022-10-04T16:03:00.113Z,31.31
2022-10-04T16:05:39.452Z,31.65
2022-10-04T16:08:33.386Z,31.62
2022-10-04T16:11:36.697Z,31.66
2022-10-04T16:14:37.521Z,31.93
2022-10-04T16:18:05.430Z,31.98
2022-10-04T16:21:19.042Z,32.35
2022-10-04T16:23:48.210Z,32.08
2022-10-04T16:27:14.116Z,32.61
2022-10-04T16:30:21.842Z,32.52
2022-10-04T16:33:00.721Z,32.61
2022-10-04T16:35:34.859Z,33.25
2022-10-04T16:38:24.287Z,32.97
2022-10-04T16:41:10.755Z,33.02
2022-10-04T16:43:52.699Z,33.42
2022-10-04T16:46:31.397Z,33.32
2022-10-04T16:49:04.398Z,33.39
2022-10-04T16:52:20.204Z,33.84
2022-10-04T16:55:47.131Z,34.03
2022-10-04T16:58:53.347Z,33.81
2022-10-04T17:02:18.208Z,34.07
2022-10-04T17:05:01.716Z,33.96
2022-10-04T17:07:43.723Z,34.27
2022-10-04T17:10:32.181Z,34.49
2022-10-04T17:13:20.233Z,34.57
2022-10-04T17:15:50.394Z,34.72
2022-10-04T17:18:37.029Z,35.08
2022-10-04T17:21:23.294Z,35.17
2022-10-04T17:24:16.111Z,35.52
2022-10-04T17:29:42.586Z,35.56
2022-10-04T17:32:25.765Z,35.61
2022-10-04T17:35:13.803Z,35.55
2022-10-04T17:37:53.641Z,35.78
2022-10-04T17:40:53.173Z,36.08
2022-10-04T17:43:32.944Z,36.11
2022-10-04T17:46:19.701Z,36.21
2022-10-04T17:49:11.959Z,36.39
2022-10-04T17:52:03.311Z,36.48
2022-10-04T17:55:00.722Z,36.82
2022-10-04T17:57:40.445Z,36.93
2022-10-04T18:00:12.968Z,37.18
2022-10-04T18:03:11.744Z,37.45
2022-10-04T18:05:52.835Z,37.64
2022-10-04T18:08:41.668Z,37.71
2022-10-04T18:11:24.418Z,37.50
2022-10-04T18:14:04.120Z,37.51
2022-10-04T18:16:44.379Z,37.55
2022-10-04T18:19:40.096Z,37.67
2022-10-04T18:22:15.633Z,37.96
2022-10-04T18:24:48.275Z,37.77
2022-10-04T18:27:22.343Z,37.76
2022-10-04T18:30:14.330Z,37.87
2022-10-04T18:32:49.133Z,37.84
2022-10-04T18:35:28.621Z,37.98
2022-10-04T18:38:20.349Z,38.10
2022-10-04T18:40:58.405Z,38.11
2022-10-04T18:43:32.815Z,38.25
2022-10-04T18:46:05.983Z,38.39
2022-10-04T18:48:54.097Z,38.40
2022-10-04T18:51:43.986Z,38.63
2022-10-04T18:54:26.859Z,38.73
2022-10-04T18:57:15.171Z,38.74
2022-10-04T19:00:15.586Z,38.90
2022-10-04T19:02:59.543Z,39.00
2022-10-04T19:05:41.553Z,39.12
2022-10-04T19:08:29.628Z,39.25
2022-10-04T19:11:06.335Z,39.39
2022-10-04T19:13:49.124Z,39.74
2022-10-04T19:16:37.703Z,39.65
2022-10-04T19:19:42.791Z,39.72
2022-10-04T19:22:29.493Z,40.08
2022-10-04T19:25:34.944Z,40.19
2022-10-04T19:28:10.609Z,40.32
2022-10-04T19:30:56.007Z,40.48
2022-10-04T19:33:38.850Z,40.52
2022-10-04T19:36:34.346Z,40.55
2022-10-04T19:39:29.177Z,40.57
2022-10-04T19:42:04.801Z,40.71
2022-10-04T19:45:00.327Z,40.85
2022-10-04T19:47:42.080Z,40.98
2022-10-04T19:50:27.760Z,40.98
2022-10-04T19:53:03.207Z,41.17
2022-10-04T19:55:45.126Z,41.30
2022-10-04T19:58:39.482Z,41.51
2022-10-04T20:01:13.864Z,41.58
2022-10-04T20:03:43.816Z,41.58
2022-10-04T20:06:25.334Z,41.56
2022-10-04T20:09:02.281Z,41.70
2022-10-04T20:11:51.916Z,41.84
2022-10-04T20:14:49.567Z,41.87
2022-10-04T20:17:40.328Z,41.98
2022-10-04T20:20:10.735Z,41.89
2022-10-04T20:22:58.305Z,41.91
2022-10-04T20:26:02.118Z,42.04
2022-10-04T20:28:46.306Z,41.97
2022-10-04T20:32:04.360Z,42.22
2022-10-04T20:34:35.938Z,42.29
2022-10-04T20:37:05.401Z,42.33
2022-10-04T20:40:00.735Z,42.52
2022-10-04T20:42:37.630Z,42.71
2022-10-04T20:45:27.922Z,42.73
2022-10-04T20:47:59.160Z,42.64
2022-10-04T20:50:38.901Z,42.85
2022-10-04T20:53:16.342Z,42.88
2022-10-04T20:55:46.121Z,42.85
2022-10-04T20:58:36.122Z,43.00
2022-10-04T21:01:17.054Z,43.00
2022-10-04T21:03:46.899Z,43.15
2022-10-04T21:06:16.809Z,43.15
2022-10-04T21:08:45.323Z,43.29
2022-10-04T21:11:21.202Z,43.40
2022-10-04T21:13:53.353Z,43.53
2022-10-04T21:16:43.164Z,43.43
2022-10-04T21:19:52.457Z,43.54
2022-10-04T21:22:38.219Z,43.57
2022-10-04T21:25:41.009Z,43.53
2022-10-04T21:28:33.957Z,43.73
2022-10-04T21:31:04.028Z,43.87
2022-10-04T21:33:37.221Z,43.91
2022-10-04T21:36:08.280Z,44.12
2022-10-04T21:38:37.128Z,43.92
2022-10-04T21:41:05.872Z,43.92
2022-10-04T21:43:34.386Z,44.03
2022-10-04T21:46:02.959Z,44.17
2022-10-04T21:48:31.570Z,44.32
2022-10-04T21:50:59.943Z,44.52
2022-10-04T21:53:29.683Z,44.43
2022-10-04T21:55:58.023Z,44.56
2022-10-04T21:58:26.506Z,44.42
2022-10-04T22:00:54.946Z,44.56
2022-10-04T22:03:23.390Z,44.56
2022-10-04T22:05:51.873Z,44.59
2022-10-04T22:08:20.230Z,44.49
2022-10-04T22:10:54.243Z,44.62
2022-10-04T22:13:26.772Z,44.49
2022-10-04T22:15:55.277Z,44.60
2022-10-04T22:18:23.663Z,44.40
2022-10-04T22:20:52.024Z,44.38
2022-10-04T22:23:23.446Z,44.70
2022-10-04T22:25:54.934Z,44.52
2022-10-04T22:28:25.977Z,44.51
2022-10-04T22:30:55.931Z,44.69
2022-10-04T22:33:34.972Z,44.54
2022-10-04T22:36:15.892Z,44.73
2022-10-04T22:38:49.112Z,44.86
2022-10-04T22:41:20.554Z,44.69
2022-10-04T22:43:50.649Z,44.77
2022-10-04T22:46:21.314Z,44.83
2022-10-04T22:48:50.901Z,44.82
2022-10-04T22:51:19.332Z,44.85
2022-10-04T22:53:48.969Z,44.93
2022-10-04T22:56:18.757Z,45.08
2022-10-04T22:58:47.111Z,44.97
2022-10-04T23:01:18.665Z,45.12
2022-10-04T23:03:49.209Z,45.06
2022-10-04T23:06:18.075Z,45.14
2022-10-04T23:08:46.635Z,45.12
2022-10-04T23:11:15.246Z,45.20
2022-10-04T23:13:44.981Z,45.46
2022-10-04T23:16:19.731Z,45.49
2022-10-04T23:18:48.178Z,45.34
2022-10-04T23:21:23.462Z,45.33
2022-10-04T23:23:53.878Z,45.43
2022-10-04T23:26:25.741Z,45.59
2022-10-04T23:28:55.463Z,45.50
2022-10-04T23:31:26.760Z,45.60
2022-10-04T23:33:58.011Z,45.58
2022-10-04T23:36:26.492Z,45.60
2022-10-04T23:39:00.406Z,45.63
2022-10-04T23:41:29.214Z,45.82
2022-10-04T23:43:58.919Z,45.69
2022-10-04T23:46:27.388Z,45.59
2022-10-04T23:48:55.801Z,45.66
2022-10-04T23:51:24.208Z,45.78
2022-10-04T23:53:52.639Z,45.74
2022-10-04T23:56:24.841Z,45.93
2022-10-04T23:58:57.596Z,45.90
